createdAt,value
2022-09-23T00:00:53.923Z,3.35714
2022-09-23T00:01:54.037Z,4.21429
2022-09-23T00:02:54.074Z,3.42857
2022-09-23T00:03:54.032Z,3.85714
2022-09-23T00:04:54.066Z,3.92857
2022-09-23T00:05:54.103Z,3.42857
2022-09-23T00:06:54.125Z,3.92857
2022-09-23T00:07:54.152Z,3.71429
2022-09-23T00:08:54.184Z,3.35714
2022-09-23T00:09:54.221Z,3.5
2022-09-23T00:10:54.266Z,4
2022-09-23T00:11:54.307Z,4.14286
2022-09-23T00:12:54.336Z,3.92857
2022-09-23T00:13:54.378Z,4
2022-09-23T00:14:54.417Z,4.14286
2022-09-23T00:15:54.455Z,4
2022-09-23T00:16:54.609Z,4.14286
2022-09-23T00:17:54.520Z,3.85714
2022-09-23T00:18:54.555Z,3.85714
2022-09-23T00:19:54.586Z,4.14286
2022-09-23T00:20:54.614Z,3.92857
2022-09-23T00:21:54.653Z,4
2022-09-23T00:22:54.690Z,4.21429
2022-09-23T00:23:54.729Z,4.14286
2022-09-23T00:24:54.759Z,3.92857
2022-09-23T00:25:54.797Z,3.71429
2022-09-23T00:26:54.838Z,3.5
2022-09-23T00:27:54.866Z,4.21429
2022-09-23T00:28:54.906Z,3.71429
2022-09-23T00:29:54.935Z,4
2022-09-23T00:30:55.065Z,4.14286
2022-09-23T00:31:55.013Z,3.5
2022-09-23T00:32:55.046Z,3.85714
2022-09-23T00:33:55.079Z,3.92857
2022-09-23T00:34:55.120Z,3.92857
2022-09-23T00:35:55.146Z,4.5
2022-09-23T00:36:55.186Z,3.85714
2022-09-23T00:37:55.227Z,3.85714
2022-09-23T00:38:55.247Z,3.85714
2022-09-23T00:39:55.291Z,4.14286
2022-09-23T00:40:55.323Z,4.14286
2022-09-23T00:41:55.357Z,3.64286
2022-09-23T00:42:55.383Z,4.14286
2022-09-23T00:43:55.423Z,3.5
2022-09-23T00:44:55.450Z,3.64286
2022-09-23T00:45:55.565Z,4
2022-09-23T00:46:55.524Z,4
2022-09-23T00:47:55.554Z,3.64286
2022-09-23T00:48:55.596Z,3.71429
2022-09-23T00:49:55.634Z,3.85714
2022-09-23T00:50:55.670Z,3.92857
2022-09-23T00:51:55.705Z,4
2022-09-23T00:52:55.735Z,3.85714
2022-09-23T00:53:55.773Z,3.5
2022-09-23T00:54:55.810Z,3.64286
2022-09-23T00:55:55.852Z,3.85714
2022-09-23T00:56:55.885Z,3.35714
2022-09-23T00:57:55.931Z,3.21429
2022-09-23T00:58:55.966Z,3.85714
2022-09-23T00:59:56.001Z,3.5
2022-09-23T01:00:56.102Z,4
2022-09-23T01:01:56.134Z,3.85714
2022-09-23T01:02:56.116Z,3.92857
2022-09-23T01:03:56.156Z,3.92857
2022-09-23T01:04:56.178Z,4.14286
2022-09-23T01:05:56.219Z,3.92857
2022-09-23T01:06:56.260Z,4.14286
2022-09-23T01:07:56.297Z,3.5
2022-09-23T01:08:56.342Z,4.35714
2022-09-23T01:09:56.383Z,4.21429
2022-09-23T01:10:56.422Z,4.5
2022-09-23T01:11:56.459Z,4.14286
2022-09-23T01:12:56.507Z,3.92857
2022-09-23T01:13:56.547Z,4.92857
2022-09-23T01:14:56.584Z,4.64286
2022-09-23T01:15:56.621Z,4.71429
2022-09-23T01:16:56.744Z,4.21429
2022-09-23T01:17:56.687Z,4.5
2022-09-23T01:18:56.730Z,3.71429
2022-09-23T01:19:56.762Z,4.14286
2022-09-23T01:20:56.803Z,4
2022-09-23T01:21:56.838Z,4.21429
2022-09-23T01:22:56.870Z,4.14286
2022-09-23T01:23:56.905Z,4
2022-09-23T01:24:56.935Z,4
2022-09-23T01:25:56.967Z,4
2022-09-23T01:26:57.012Z,4.35714
2022-09-23T01:27:57.051Z,4
2022-09-23T01:28:57.089Z,3.92857
2022-09-23T01:29:57.121Z,4
2022-09-23T01:30:57.209Z,4.64286
2022-09-23T01:31:57.196Z,4.14286
2022-09-23T01:32:57.242Z,3.5
2022-09-23T01:33:57.284Z,4.14286
2022-09-23T01:34:57.319Z,4.14286
2022-09-23T01:35:57.350Z,4.14286
2022-09-23T01:36:57.388Z,4.35714
2022-09-23T01:37:57.420Z,3.64286
2022-09-23T01:38:57.451Z,4.21429
2022-09-23T01:39:57.489Z,4.35714
2022-09-23T01:40:57.518Z,4.5
2022-09-23T01:41:57.553Z,4
2022-09-23T01:42:57.586Z,4.21429
2022-09-23T01:43:57.621Z,4.14286
2022-09-23T01:44:57.638Z,4.21429
2022-09-23T01:45:57.671Z,4.14286
2022-09-23T01:46:57.713Z,4.14286
2022-09-23T01:47:57.771Z,3.85714
2022-09-23T01:48:57.783Z,4.5
2022-09-23T01:49:57.821Z,4.21429
2022-09-23T01:50:57.861Z,4
2022-09-23T01:51:57.896Z,4.85714
2022-09-23T01:52:57.928Z,4.5
2022-09-23T01:53:57.960Z,4.35714
2022-09-23T01:54:57.995Z,4.35714
2022-09-23T01:55:58.030Z,4.42857
2022-09-23T01:56:58.051Z,4.42857
2022-09-23T01:57:58.090Z,4
2022-09-23T01:58:58.127Z,3.85714
2022-09-23T01:59:58.167Z,4
2022-09-23T02:00:58.292Z,4
2022-09-23T02:01:58.314Z,4.14286
2022-09-23T02:02:58.277Z,3.85714
2022-09-23T02:03:58.316Z,4.21429
2022-09-23T02:04:58.360Z,4.64286
2022-09-23T02:05:58.395Z,4.35714
2022-09-23T02:06:58.423Z,4.5
2022-09-23T02:07:58.463Z,4
2022-09-23T02:08:58.498Z,4
2022-09-23T02:09:58.528Z,4.35714
2022-09-23T02:10:58.567Z,4.14286
2022-09-23T02:11:58.941Z,4
2022-09-23T02:12:58.631Z,3.64286
2022-09-23T02:13:58.668Z,4
2022-09-23T02:14:58.703Z,3.92857
2022-09-23T02:15:58.741Z,4
2022-09-23T02:16:58.839Z,3.71429
2022-09-23T02:17:58.822Z,3.85714
2022-09-23T02:18:58.959Z,3.92857
2022-09-23T02:19:58.879Z,4
2022-09-23T02:20:58.915Z,3.85714
2022-09-23T02:21:58.955Z,4.21429
2022-09-23T02:22:58.983Z,3.71429
2022-09-23T02:23:59.020Z,3.92857
2022-09-23T02:24:59.057Z,3.85714
2022-09-23T02:25:59.095Z,4.21429
2022-09-23T02:26:59.122Z,4.5
2022-09-23T02:27:59.155Z,4.42857
2022-09-23T02:28:59.320Z,3.85714
2022-09-23T02:29:59.226Z,3.85714
2022-09-23T02:30:59.260Z,4
2022-09-23T02:31:59.370Z,4.35714
2022-09-23T02:32:59.338Z,4.35714
2022-09-23T02:33:59.376Z,3.92857
2022-09-23T02:34:59.414Z,4
2022-09-23T02:35:59.451Z,4.35714
2022-09-23T02:36:59.486Z,3.64286
2022-09-23T02:37:59.532Z,4.14286
2022-09-23T02:38:59.572Z,4.42857
2022-09-23T02:39:59.615Z,4.14286
2022-09-23T02:40:59.655Z,4.35714
2022-09-23T02:41:59.697Z,4.14286
2022-09-23T02:42:59.733Z,4
2022-09-23T02:43:59.914Z,3.92857
2022-09-23T02:44:59.819Z,4
2022-09-23T02:45:59.919Z,4.64286
2022-09-23T02:46:59.891Z,4.21429
2022-09-23T02:47:59.929Z,4.14286
2022-09-23T02:48:59.964Z,4.14286
2022-09-23T02:50:00.008Z,4.21429
2022-09-23T02:51:00.065Z,4
2022-09-23T02:52:00.080Z,4
2022-09-23T02:53:00.111Z,3.71429
2022-09-23T02:54:00.144Z,3.92857
2022-09-23T02:55:00.182Z,4.21429
2022-09-23T02:56:00.219Z,4.42857
2022-09-23T02:57:00.261Z,4.42857
2022-09-23T02:58:00.292Z,5.35714
2022-09-23T02:59:00.332Z,4.5
2022-09-23T03:00:00.370Z,4.64286
2022-09-23T03:01:00.474Z,4.71429
2022-09-23T03:02:00.526Z,4.92857
2022-09-23T03:03:00.484Z,4.35714
2022-09-23T03:04:00.532Z,4.5
2022-09-23T03:05:00.552Z,4.85714
2022-09-23T03:06:00.585Z,5.21429
2022-09-23T03:07:00.609Z,5.21429
2022-09-23T03:08:00.646Z,5.64286
2022-09-23T03:09:00.684Z,5.5
2022-09-23T03:10:00.717Z,5.21429
2022-09-23T03:11:00.764Z,5
2022-09-23T03:12:00.793Z,4.64286
2022-09-23T03:13:00.828Z,5.14286
2022-09-23T03:14:00.860Z,5.71429
2022-09-23T03:15:00.901Z,5.42857
2022-09-23T03:16:00.961Z,5.42857
2022-09-23T03:17:00.975Z,5.14286
2022-09-23T03:18:01.012Z,5.35714
2022-09-23T03:19:01.042Z,5.21429
2022-09-23T03:20:01.077Z,5.35714
2022-09-23T03:21:01.114Z,5.5
2022-09-23T03:22:01.154Z,5.35714
2022-09-23T03:23:01.185Z,5
2022-09-23T03:24:01.223Z,5.14286
2022-09-23T03:25:01.262Z,5.14286
2022-09-23T03:26:01.300Z,5.21429
2022-09-23T03:27:01.332Z,5.42857
2022-09-23T03:28:01.371Z,4.92857
2022-09-23T03:29:01.404Z,5.14286
2022-09-23T03:30:01.460Z,5.42857
2022-09-23T03:31:01.472Z,5.71429
2022-09-23T03:32:01.547Z,5.35714
2022-09-23T03:33:01.558Z,5
2022-09-23T03:34:01.577Z,5.5
2022-09-23T03:35:01.613Z,5.64286
2022-09-23T03:36:01.644Z,5.42857
2022-09-23T03:37:01.676Z,5.14286
2022-09-23T03:38:01.716Z,5.14286
2022-09-23T03:39:01.810Z,4.92857
2022-09-23T03:40:01.788Z,5.21429
2022-09-23T03:41:01.821Z,5.21429
2022-09-23T03:42:01.859Z,5.42857
2022-09-23T03:43:01.876Z,4.92857
2022-09-23T03:44:01.913Z,5.21429
2022-09-23T03:45:01.951Z,4.85714
2022-09-23T03:46:02.130Z,5.71429
2022-09-23T03:47:02.020Z,5.35714
2022-09-23T03:48:02.051Z,5.14286
2022-09-23T03:49:02.083Z,5
2022-09-23T03:50:02.120Z,5.64286
2022-09-23T03:51:02.155Z,5
2022-09-23T03:52:02.187Z,5.14286
2022-09-23T03:53:02.230Z,5.21429
2022-09-23T03:54:02.319Z,5.21429
2022-09-23T03:55:02.302Z,4.92857
2022-09-23T03:56:02.341Z,4.85714
2022-09-23T03:57:02.374Z,5
2022-09-23T03:58:02.410Z,5.14286
2022-09-23T03:59:02.444Z,4.85714
2022-09-23T04:00:02.484Z,5.14286
2022-09-23T04:01:02.600Z,5.14286
2022-09-23T04:02:02.694Z,5.5
2022-09-23T04:03:02.589Z,5.64286
2022-09-23T04:04:02.685Z,5.21429
2022-09-23T04:05:02.657Z,5
2022-09-23T04:06:02.692Z,5.14286
2022-09-23T04:07:02.730Z,5.42857
2022-09-23T04:08:02.769Z,5.64286
2022-09-23T04:09:02.800Z,5.5
2022-09-23T04:10:02.833Z,5.14286
2022-09-23T04:11:02.863Z,5.85714
2022-09-23T04:12:02.895Z,5.71429
2022-09-23T04:13:02.934Z,5
2022-09-23T04:14:02.970Z,4.85714
2022-09-23T04:15:03.021Z,5.35714
2022-09-23T04:16:03.131Z,5.14286
2022-09-23T04:17:03.087Z,5
2022-09-23T04:18:03.122Z,5.42857
2022-09-23T04:19:04.947Z,5.64286
2022-09-23T04:20:03.179Z,5.5
2022-09-23T04:21:03.219Z,4.92857
2022-09-23T04:22:03.253Z,5.85714
2022-09-23T04:23:03.290Z,5.42857
2022-09-23T04:24:03.322Z,5.71429
2022-09-23T04:25:03.352Z,5.5
2022-09-23T04:26:03.382Z,5.21429
2022-09-23T04:27:03.430Z,5.92857
2022-09-23T04:28:03.460Z,5.5
2022-09-23T04:29:03.503Z,5.64286
2022-09-23T04:30:03.524Z,5.85714
2022-09-23T04:31:03.663Z,5.71429
2022-09-23T04:32:03.593Z,5.92857
2022-09-23T04:33:03.639Z,5.35714
2022-09-23T04:34:03.681Z,6.14286
2022-09-23T04:35:03.721Z,5.5
2022-09-23T04:36:03.761Z,5.85714
2022-09-23T04:37:03.799Z,5.85714
2022-09-23T04:38:03.829Z,5.85714
2022-09-23T04:39:03.868Z,5.71429
2022-09-23T04:40:04.021Z,5.85714
2022-09-23T04:41:03.936Z,5.5
2022-09-23T04:42:03.974Z,5.71429
2022-09-23T04:43:04.003Z,5.64286
2022-09-23T04:44:04.051Z,5
2022-09-23T04:45:04.077Z,5.42857
2022-09-23T04:46:04.112Z,5.21429
2022-09-23T04:47:04.229Z,5.64286
2022-09-23T04:48:04.172Z,5.35714
2022-09-23T04:49:04.211Z,5.92857
2022-09-23T04:50:04.247Z,5.5
2022-09-23T04:51:04.279Z,5.92857
2022-09-23T04:52:04.322Z,5.71429
2022-09-23T04:53:04.362Z,5.64286
2022-09-23T04:54:04.399Z,6.14286
2022-09-23T04:55:06.937Z,5.5
2022-09-23T04:56:04.474Z,5.5
2022-09-23T04:57:04.520Z,5.21429
2022-09-23T04:58:04.551Z,5.92857
2022-09-23T04:59:04.585Z,6.14286
2022-09-23T05:00:04.633Z,6.42857
2022-09-23T05:01:05.473Z,6
2022-09-23T05:02:04.743Z,5.85714
2022-09-23T05:03:04.736Z,6.64286
2022-09-23T05:04:04.768Z,6.64286
2022-09-23T05:05:04.813Z,7.92857
2022-09-23T05:06:04.842Z,7.5
2022-09-23T05:07:04.878Z,7.5
2022-09-23T05:08:04.907Z,7.85714
2022-09-23T05:09:04.965Z,8.5
2022-09-23T05:10:04.973Z,8.5
2022-09-23T05:11:05.014Z,7.92857
2022-09-23T05:12:05.043Z,8
2022-09-23T05:13:05.079Z,7.85714
2022-09-23T05:14:05.116Z,8.35714
2022-09-23T05:15:05.160Z,7.71429
2022-09-23T05:16:05.218Z,7.85714
2022-09-23T05:17:05.226Z,8.92857
2022-09-23T05:18:05.269Z,8.64286
2022-09-23T05:19:05.303Z,7.71429
2022-09-23T05:20:05.341Z,8.14286
2022-09-23T05:21:05.369Z,8.21429
2022-09-23T05:22:05.403Z,8.5
2022-09-23T05:23:05.441Z,8.14286
2022-09-23T05:24:05.484Z,8.35714
2022-09-23T05:25:05.511Z,7.64286
2022-09-23T05:26:05.547Z,8.21429
2022-09-23T05:27:05.584Z,7.71429
2022-09-23T05:28:05.624Z,8.5
2022-09-23T05:29:05.727Z,9.21429
2022-09-23T05:30:05.706Z,8.92857
2022-09-23T05:31:05.870Z,8.64286
2022-09-23T05:32:05.842Z,9.5
2022-09-23T05:33:05.815Z,9.92857
2022-09-23T05:34:05.853Z,9.5
2022-09-23T05:35:05.891Z,9.85714
2022-09-23T05:36:05.915Z,9.42857
2022-09-23T05:37:05.946Z,9.14286
2022-09-23T05:38:05.988Z,8.85714
2022-09-23T05:39:06.120Z,9.14286
2022-09-23T05:40:06.117Z,8.92857
2022-09-23T05:41:06.094Z,8.85714
2022-09-23T05:42:06.130Z,8.85714
2022-09-23T05:43:06.162Z,9.14286
2022-09-23T05:44:06.204Z,8.71429
2022-09-23T05:45:06.241Z,8.42857
2022-09-23T05:46:08.338Z,8.64286
2022-09-23T05:47:06.376Z,8.64286
2022-09-23T05:48:06.351Z,8.21429
2022-09-23T05:49:06.385Z,8.35714
2022-09-23T05:50:06.421Z,8.85714
2022-09-23T05:51:06.458Z,9.35714
2022-09-23T05:52:06.491Z,9.21429
2022-09-23T05:53:06.524Z,9.14286
2022-09-23T05:54:06.701Z,9.71429
2022-09-23T05:55:06.598Z,9.5
2022-09-23T05:56:06.642Z,9.85714
2022-09-23T05:57:06.673Z,10.2143
2022-09-23T05:58:06.719Z,9.92857
2022-09-23T05:59:06.944Z,10.4286
2022-09-23T06:00:06.763Z,10.5
2022-09-23T06:01:06.796Z,10
2022-09-23T06:02:06.874Z,10.1429
2022-09-23T06:03:06.998Z,11.2143
2022-09-23T06:04:07.003Z,10
2022-09-23T06:05:06.932Z,9.5
2022-09-23T06:06:06.967Z,9.64286
2022-09-23T06:07:06.996Z,9.92857
2022-09-23T06:08:07.032Z,10.8571
2022-09-23T06:09:07.282Z,10.1429
2022-09-23T06:10:07.088Z,10.6429
2022-09-23T06:11:07.152Z,10.7143
2022-09-23T06:12:07.165Z,10
2022-09-23T06:13:07.206Z,10.1429
2022-09-23T06:14:07.387Z,9.85714
2022-09-23T06:15:07.269Z,10.5
2022-09-23T06:16:07.351Z,10.8571
2022-09-23T06:17:07.348Z,10.1429
2022-09-23T06:18:07.395Z,11
2022-09-23T06:19:07.419Z,10.8571
2022-09-23T06:20:07.435Z,11
2022-09-23T06:21:07.466Z,12.3571
2022-09-23T06:22:07.500Z,11.8571
2022-09-23T06:23:09.486Z,11.1429
2022-09-23T06:24:07.831Z,11.3571
2022-09-23T06:25:07.597Z,10.2143
2022-09-23T06:26:07.632Z,10.7143
2022-09-23T06:27:07.658Z,12
2022-09-23T06:28:07.698Z,11
2022-09-23T06:29:07.729Z,11.8571
2022-09-23T06:30:07.762Z,11.1429
2022-09-23T06:31:12.918Z,11.3571
2022-09-23T06:32:07.832Z,11.2143
2022-09-23T06:33:07.864Z,11.5
2022-09-23T06:34:11.961Z,10.9286
2022-09-23T06:35:19.211Z,11.6429
2022-09-23T06:36:07.975Z,11.7143
2022-09-23T06:37:18.088Z,11.2143
2022-09-23T06:38:08.038Z,11.2143
2022-09-23T06:39:08.080Z,10.7143
2022-09-23T06:40:08.146Z,11
2022-09-23T06:41:08.143Z,11.2143
2022-09-23T06:42:08.176Z,11.6429
2022-09-23T06:43:08.200Z,10.8571
2022-09-23T06:44:08.295Z,11.6429
2022-09-23T06:45:08.286Z,11
2022-09-23T06:46:08.406Z,11
2022-09-23T06:47:08.364Z,10.6429
2022-09-23T06:48:08.395Z,11.1429
2022-09-23T06:49:08.433Z,10.3571
2022-09-23T06:50:08.466Z,11.7143
2022-09-23T06:51:08.505Z,11.3571
2022-09-23T06:52:08.542Z,10.8571
2022-09-23T06:53:08.576Z,10.3571
2022-09-23T06:54:08.690Z,9.64286
2022-09-23T06:55:08.645Z,10.2143
2022-09-23T06:56:08.681Z,10.3571
2022-09-23T06:57:08.710Z,10.1429
2022-09-23T06:58:08.745Z,10.1429
2022-09-23T06:59:08.790Z,9.92857
2022-09-23T07:00:08.817Z,9.92857
2022-09-23T07:01:08.851Z,9.92857
2022-09-23T07:02:08.999Z,10.2143
2022-09-23T07:03:08.925Z,10.2143
2022-09-23T07:04:08.962Z,10.4286
2022-09-23T07:05:09.002Z,10
2022-09-23T07:06:09.026Z,9.85714
2022-09-23T07:07:09.066Z,10.7143
2022-09-23T07:08:09.100Z,10.5
2022-09-23T07:09:09.163Z,10.2143
2022-09-23T07:10:09.163Z,11.4286
2022-09-23T07:11:09.192Z,11
2022-09-23T07:12:09.230Z,10.9286
2022-09-23T07:13:12.953Z,10.8571
2022-09-23T07:14:09.307Z,10.5
2022-09-23T07:15:09.347Z,10.8571
2022-09-23T07:16:09.701Z,10.1429
2022-09-23T07:17:09.439Z,10
2022-09-23T07:18:09.447Z,10.1429
2022-09-23T07:19:09.483Z,9.64286
2022-09-23T07:20:09.519Z,9
2022-09-23T07:21:09.561Z,9.92857
2022-09-23T07:22:09.590Z,8.42857
2022-09-23T07:23:09.620Z,8.5
2022-09-23T07:24:09.745Z,9.35714
2022-09-23T07:25:09.687Z,9.14286
2022-09-23T07:26:09.720Z,9.14286
2022-09-23T07:27:09.750Z,8.85714
2022-09-23T07:28:09.792Z,8.64286
2022-09-23T07:29:09.826Z,9.21429
2022-09-23T07:30:16.868Z,8.5
2022-09-23T07:31:09.946Z,8.42857
2022-09-23T07:32:13.679Z,8.5
2022-09-23T07:33:22.381Z,8
2022-09-23T07:34:10.072Z,8.14286
2022-09-23T07:35:10.042Z,8.35714
2022-09-23T07:36:10.113Z,8.35714
2022-09-23T07:37:10.113Z,8.35714
2022-09-23T07:38:10.149Z,8.14286
2022-09-23T07:39:10.194Z,8.14286
2022-09-23T07:40:10.307Z,8.14286
2022-09-23T07:41:10.251Z,8
2022-09-23T07:42:10.289Z,7.42857
2022-09-23T07:43:10.330Z,7.5
2022-09-23T07:44:10.361Z,7.35714
2022-09-23T07:45:10.402Z,6.85714
2022-09-23T07:46:10.504Z,7.5
2022-09-23T07:47:10.472Z,7.35714
2022-09-23T07:48:10.508Z,7.42857
2022-09-23T07:49:10.667Z,6.92857
2022-09-23T07:50:10.568Z,7.21429
2022-09-23T07:51:10.614Z,7.64286
2022-09-23T07:52:10.655Z,7.42857
2022-09-23T07:53:10.698Z,7.14286
2022-09-23T07:54:10.740Z,7.14286
2022-09-23T07:55:10.769Z,7.35714
2022-09-23T07:56:10.802Z,7
2022-09-23T07:57:10.839Z,7.35714
2022-09-23T07:58:10.870Z,6.92857
2022-09-23T07:59:11.003Z,6.92857
2022-09-23T08:00:10.941Z,7
2022-09-23T08:01:11.043Z,7.14286
2022-09-23T08:02:11.015Z,7.5
2022-09-23T08:03:11.129Z,7.14286
2022-09-23T08:04:11.105Z,6.92857
2022-09-23T08:05:11.117Z,7.14286
2022-09-23T08:06:11.153Z,7.14286
2022-09-23T08:07:11.189Z,7.14286
2022-09-23T08:08:11.216Z,6.92857
2022-09-23T08:09:11.250Z,6.92857
2022-09-23T08:10:11.280Z,6.21429
2022-09-23T08:11:11.321Z,6.35714
2022-09-23T08:12:15.787Z,6.64286
2022-09-23T08:13:11.381Z,6.92857
2022-09-23T08:14:11.410Z,6.71429
2022-09-23T08:15:11.456Z,6.71429
2022-09-23T08:16:11.530Z,7
2022-09-23T08:17:11.524Z,6.42857
2022-09-23T08:18:11.559Z,6.35714
2022-09-23T08:19:11.591Z,6
2022-09-23T08:20:11.632Z,6.14286
2022-09-23T08:21:11.667Z,6.71429
2022-09-23T08:22:11.704Z,6.35714
2022-09-23T08:23:11.740Z,6.35714
2022-09-23T08:24:11.774Z,6.21429
2022-09-23T08:25:11.811Z,5.71429
2022-09-23T08:26:19.436Z,6.14286
2022-09-23T08:27:11.889Z,6.35714
2022-09-23T08:28:11.924Z,6.21429
2022-09-23T08:29:11.958Z,6.14286
2022-09-23T08:30:11.991Z,6.71429
2022-09-23T08:31:12.069Z,6
2022-09-23T08:32:12.055Z,5.71429
2022-09-23T08:33:12.097Z,6
2022-09-23T08:34:12.131Z,6
2022-09-23T08:35:12.168Z,5.64286
2022-09-23T08:36:12.202Z,6.42857
2022-09-23T08:37:12.238Z,6
2022-09-23T08:38:12.283Z,6.14286
2022-09-23T08:39:12.304Z,5.92857
2022-09-23T08:40:12.434Z,6.42857
2022-09-23T08:41:12.360Z,6.21429
2022-09-23T08:42:12.404Z,5.92857
2022-09-23T08:43:12.433Z,5.85714
2022-09-23T08:44:12.464Z,5.64286
2022-09-23T08:45:12.502Z,5.71429
2022-09-23T08:46:12.588Z,5.71429
2022-09-23T08:47:12.575Z,6.14286
2022-09-23T08:48:13.236Z,5.85714
2022-09-23T08:49:12.644Z,5.64286
2022-09-23T08:50:12.681Z,6
2022-09-23T08:51:12.717Z,5.71429
2022-09-23T08:52:12.744Z,6.35714
2022-09-23T08:53:12.801Z,5.21429
2022-09-23T08:54:12.810Z,6.14286
2022-09-23T08:55:12.848Z,6.35714
2022-09-23T08:56:12.887Z,5.64286
2022-09-23T08:57:12.928Z,5.85714
2022-09-23T08:58:25.045Z,5.85714
2022-09-23T08:59:12.995Z,5.92857
2022-09-23T09:00:13.031Z,5.5
2022-09-23T09:01:13.137Z,5.71429
2022-09-23T09:02:13.132Z,6
2022-09-23T09:03:13.126Z,5.85714
2022-09-23T09:04:13.160Z,5.92857
2022-09-23T09:05:13.198Z,5.71429
2022-09-23T09:06:13.236Z,5.64286
2022-09-23T09:07:35.284Z,5.85714
2022-09-23T09:08:13.298Z,5.85714
2022-09-23T09:09:13.336Z,5.64286
2022-09-23T09:10:13.367Z,5.64286
2022-09-23T09:11:13.422Z,5.5
2022-09-23T09:12:13.439Z,5.42857
2022-09-23T09:13:13.476Z,5.5
2022-09-23T09:14:13.511Z,5.35714
2022-09-23T09:15:13.543Z,5.92857
2022-09-23T09:16:13.683Z,5.64286
2022-09-23T09:17:13.609Z,4.92857
2022-09-23T09:18:13.646Z,5.5
2022-09-23T09:19:13.685Z,5.85714
2022-09-23T09:20:13.719Z,5.21429
2022-09-23T09:21:13.751Z,5.14286
2022-09-23T09:22:13.790Z,4.92857
2022-09-23T09:23:13.824Z,5.64286
2022-09-23T09:24:13.858Z,5.35714
2022-09-23T09:25:14.456Z,4.92857
2022-09-23T09:26:13.930Z,4.92857
2022-09-23T09:27:13.968Z,4.92857
2022-09-23T09:28:14.002Z,4.64286
2022-09-23T09:29:31.164Z,5.21429
2022-09-23T09:30:14.078Z,4.92857
2022-09-23T09:31:14.115Z,4.42857
2022-09-23T09:32:14.140Z,5.35714
2022-09-23T09:33:14.172Z,5.21429
2022-09-23T09:34:14.198Z,5.14286
2022-09-23T09:35:14.287Z,4.92857
2022-09-23T09:36:14.269Z,5.85714
2022-09-23T09:37:14.308Z,4.92857
2022-09-23T09:38:14.333Z,4.85714
2022-09-23T09:39:14.370Z,5.21429
2022-09-23T09:40:14.464Z,5.14286
2022-09-23T09:41:14.442Z,4.71429
2022-09-23T09:42:14.481Z,4.35714
2022-09-23T09:43:14.508Z,4.5
2022-09-23T09:44:14.549Z,4.71429
2022-09-23T09:45:14.587Z,4.85714
2022-09-23T09:46:14.688Z,5.14286
2022-09-23T09:47:14.652Z,4.64286
2022-09-23T09:48:14.687Z,4.5
2022-09-23T09:49:14.724Z,5
2022-09-23T09:50:14.755Z,4.35714
2022-09-23T09:51:14.785Z,4.42857
2022-09-23T09:52:14.809Z,4.42857
2022-09-23T09:53:14.796Z,4.42857
2022-09-23T09:54:14.824Z,3.85714
2022-09-23T09:55:14.856Z,4
2022-09-23T09:56:14.891Z,4
2022-09-23T09:57:14.929Z,4.21429
2022-09-23T09:58:14.968Z,4.64286
2022-09-23T09:59:15.001Z,4.5
2022-09-23T10:00:15.035Z,3.85714
2022-09-23T10:01:15.125Z,4.92857
2022-09-23T10:02:15.107Z,4.14286
2022-09-23T10:03:15.155Z,4.14286
2022-09-23T10:04:15.231Z,3.64286
2022-09-23T10:05:15.223Z,3.92857
2022-09-23T10:06:15.254Z,3.64286
2022-09-23T10:07:15.283Z,3.85714
2022-09-23T10:08:15.315Z,3.35714
2022-09-23T10:09:15.345Z,3.14286
2022-09-23T10:10:28.955Z,4.14286
2022-09-23T10:11:15.405Z,3.42857
2022-09-23T10:12:15.455Z,3.35714
2022-09-23T10:13:15.485Z,3.64286
2022-09-23T10:14:15.515Z,3.42857
2022-09-23T10:15:15.547Z,3.71429
2022-09-23T10:16:15.706Z,3.85714
2022-09-23T10:17:15.615Z,3.85714
2022-09-23T10:18:15.648Z,3.42857
2022-09-23T10:19:15.697Z,2.92857
2022-09-23T10:20:15.819Z,3.64286
2022-09-23T10:21:15.746Z,3.42857
2022-09-23T10:22:15.789Z,3.14286
2022-09-23T10:23:15.817Z,3.5
2022-09-23T10:24:15.850Z,3.14286
2022-09-23T10:25:15.882Z,3.71429
2022-09-23T10:26:15.923Z,3.71429
2022-09-23T10:27:15.966Z,3.14286
2022-09-23T10:28:15.996Z,2.71429
2022-09-23T10:29:16.033Z,2.85714
2022-09-23T10:30:16.159Z,2.71429
2022-09-23T10:31:16.147Z,3
2022-09-23T10:32:16.135Z,3.21429
2022-09-23T10:33:16.163Z,3.64286
2022-09-23T10:34:16.202Z,3.14286
2022-09-23T10:35:16.240Z,2.92857
2022-09-23T10:36:16.264Z,3
2022-09-23T10:37:16.299Z,3.14286
2022-09-23T10:38:16.341Z,3.21429
2022-09-23T10:39:16.380Z,3.42857
2022-09-23T10:40:16.566Z,3.5
2022-09-23T10:41:16.454Z,3.35714
2022-09-23T10:42:16.489Z,3.14286
2022-09-23T10:43:16.509Z,3
2022-09-23T10:44:16.541Z,3.14286
2022-09-23T10:45:16.570Z,3.14286
2022-09-23T10:46:16.691Z,3.42857
2022-09-23T10:47:16.640Z,3.21429
2022-09-23T10:48:16.673Z,3.71429
2022-09-23T10:49:16.705Z,3.71429
2022-09-23T10:50:16.749Z,3.92857
2022-09-23T10:51:16.781Z,3.42857
2022-09-23T10:52:16.819Z,3.35714
2022-09-23T10:53:16.849Z,3.64286
2022-09-23T10:54:16.882Z,3.92857
2022-09-23T10:55:16.920Z,3.5
2022-09-23T10:56:16.958Z,3.85714
2022-09-23T10:57:16.990Z,3.85714
2022-09-23T10:58:17.025Z,3.42857
2022-09-23T10:59:17.060Z,3.35714
2022-09-23T11:00:17.097Z,3.64286
2022-09-23T11:01:17.219Z,3.71429
2022-09-23T11:02:17.168Z,3.42857
2022-09-23T11:03:17.201Z,3
2022-09-23T11:04:17.303Z,3.14286
2022-09-23T11:05:17.271Z,2.92857
2022-09-23T11:06:17.288Z,2.92857
2022-09-23T11:07:17.314Z,3.5
2022-09-23T11:08:17.352Z,3.5
2022-09-23T11:09:17.385Z,3.42857
2022-09-23T11:10:29.274Z,3.21429
2022-09-23T11:11:17.448Z,3.35714
2022-09-23T11:12:17.486Z,5.21429
2022-09-23T11:13:17.525Z,3.42857
2022-09-23T11:14:17.559Z,3.21429
2022-09-23T11:15:17.594Z,3.42857
2022-09-23T11:16:17.731Z,3.21429
2022-09-23T11:17:17.654Z,2.71429
2022-09-23T11:18:17.692Z,2.85714
2022-09-23T11:19:17.727Z,2.92857
2022-09-23T11:20:17.755Z,3.14286
2022-09-23T11:21:17.791Z,3.21429
2022-09-23T11:22:17.826Z,2.64286
2022-09-23T11:23:17.866Z,3
2022-09-23T11:24:17.893Z,2.85714
2022-09-23T11:25:17.921Z,2.42857
2022-09-23T11:26:17.956Z,3
2022-09-23T11:27:17.991Z,4
2022-09-23T11:28:18.027Z,2.71429
2022-09-23T11:29:18.067Z,2.64286
2022-09-23T11:30:18.088Z,2.64286
2022-09-23T11:31:18.165Z,2.5
2022-09-23T11:32:18.151Z,2.64286
2022-09-23T11:33:18.177Z,2.5
2022-09-23T11:34:18.208Z,2.42857
2022-09-23T11:35:18.251Z,2.64286
2022-09-23T11:36:18.287Z,2.92857
2022-09-23T11:37:18.327Z,2.85714
2022-09-23T11:38:18.366Z,2.64286
2022-09-23T11:39:18.397Z,2.5
2022-09-23T11:40:18.462Z,2.92857
2022-09-23T11:41:18.462Z,2.71429
2022-09-23T11:42:18.499Z,2.92857
2022-09-23T11:43:18.538Z,2.71429
2022-09-23T11:44:18.561Z,2.64286
2022-09-23T11:45:18.594Z,2.42857
2022-09-23T11:46:18.703Z,2.85714
2022-09-23T11:47:18.673Z,2.64286
2022-09-23T11:48:18.704Z,2.92857
2022-09-23T11:49:18.739Z,2.71429
2022-09-23T11:50:18.769Z,2.5
2022-09-23T11:51:18.807Z,2.71429
2022-09-23T11:52:18.838Z,2.5
2022-09-23T11:53:18.870Z,2.85714
2022-09-23T11:54:20.773Z,2.35714
2022-09-23T11:55:22.382Z,2.64286
2022-09-23T11:56:30.307Z,2.5
2022-09-23T11:57:18.997Z,4
2022-09-23T11:58:25.399Z,2.64286
2022-09-23T11:59:22.357Z,3
2022-09-23T12:00:19.095Z,2.5
2022-09-23T12:01:23.037Z,2.5
2022-09-23T12:02:21.236Z,2.42857
2022-09-23T12:03:19.297Z,2.64286
2022-09-23T12:04:21.188Z,2.85714
2022-09-23T12:05:19.373Z,2.5
2022-09-23T12:06:19.303Z,2.35714
2022-09-23T12:07:19.336Z,2.35714
2022-09-23T12:08:19.362Z,2.85714
2022-09-23T12:09:31.016Z,2.21429
2022-09-23T12:10:19.423Z,2.21429
2022-09-23T12:11:19.466Z,2.21429
2022-09-23T12:12:21.977Z,2.42857
2022-09-23T12:13:19.536Z,2.42857
2022-09-23T12:14:19.561Z,2.35714
2022-09-23T12:15:19.603Z,2.42857
2022-09-23T12:16:19.686Z,2.71429
2022-09-23T12:17:19.675Z,2.42857
2022-09-23T12:18:22.953Z,2.64286
2022-09-23T12:19:19.738Z,2.5
2022-09-23T12:20:19.769Z,2.71429
2022-09-23T12:21:45.736Z,2.35714
2022-09-23T12:22:19.844Z,2.42857
2022-09-23T12:23:19.885Z,2.35714
2022-09-23T12:24:19.917Z,2.42857
2022-09-23T12:25:19.957Z,2.64286
2022-09-23T12:26:19.973Z,2.71429
2022-09-23T12:27:20.018Z,2.64286
2022-09-23T12:28:20.042Z,2.64286
2022-09-23T12:29:20.138Z,2.71429
2022-09-23T12:30:20.228Z,2.35714